createdAt,value
2019-03-24T00:01:00.203Z,46.45
2019-03-24T00:03:30.606Z,44.15
2019-03-24T00:06:02.259Z,45.08
2019-03-24T00:08:32.670Z,49.40
2019-03-24T00:11:03.063Z,43.83
2019-03-24T00:13:33.481Z,45.75
2019-03-24T00:16:03.892Z,53.70
2019-03-24T00:18:34.298Z,46.65
2019-03-24T00:21:04.779Z,43.95
2019-03-24T00:23:35.204Z,47.78
2019-03-24T00:26:05.593Z,44.20
2019-03-24T00:28:35.993Z,41.77
2019-03-24T00:31:06.490Z,46.77
2019-03-24T00:33:36.909Z,46.83
2019-03-24T00:36:07.306Z,40.15
2019-03-24T00:38:37.700Z,43.75
2019-03-24T00:41:08.325Z,47.40
2019-03-24T00:43:38.715Z,45.88
2019-03-24T00:46:09.221Z,42.58
2019-03-24T00:48:39.620Z,48.48
2019-03-24T00:51:10.028Z,47.67
2019-03-24T00:53:40.418Z,46.25
2019-03-24T00:56:10.843Z,56.42
2019-03-24T00:58:41.258Z,54.80
2019-03-24T01:01:11.655Z,50.67
2019-03-24T01:03:42.066Z,49.05
2019-03-24T01:06:12.475Z,49.80
2019-03-24T01:08:42.880Z,47.88
2019-03-24T01:11:13.295Z,47.67
2019-03-24T01:13:43.690Z,46.50
2019-03-24T01:16:14.089Z,48.20
2019-03-24T01:18:44.489Z,47.90
2019-03-24T01:21:14.891Z,45.17
2019-03-24T01:23:45.414Z,45.30
2019-03-24T01:26:15.824Z,41.28
2019-03-24T01:28:46.217Z,43.10
2019-03-24T01:34:40.636Z,43.90
2019-03-24T01:37:39.097Z,44.13
2019-03-24T01:40:33.900Z,40.92
2019-03-24T01:43:15.184Z,41.42
2019-03-24T01:49:22.898Z,43.87
2019-03-24T02:01:45.418Z,41.83
2019-03-24T02:04:30.375Z,42.67
2019-03-24T02:10:39.632Z,43.05
2019-03-24T02:17:02.230Z,38.60
2019-03-24T02:19:48.604Z,40.80
2019-03-24T02:22:21.478Z,42.05
2019-03-24T02:24:51.901Z,39.92
2019-03-24T02:27:22.251Z,44.93
2019-03-24T02:29:52.677Z,34.80
2019-03-24T02:32:23.020Z,37.38
2019-03-24T02:34:53.436Z,34.27
2019-03-24T02:37:23.785Z,31.23
2019-03-24T02:39:54.225Z,38.45
2019-03-24T02:42:24.579Z,34.75
2019-03-24T02:44:55.026Z,35.65
2019-03-24T02:47:25.445Z,34.48
2019-03-24T02:49:55.861Z,41.40
2019-03-24T02:52:26.213Z,37.65
2019-03-24T02:54:56.620Z,35.00
2019-03-24T02:57:26.963Z,41.13
2019-03-24T02:59:57.409Z,33.35
2019-03-24T03:02:27.761Z,34.65
2019-03-24T03:04:58.185Z,33.95
2019-03-24T03:07:28.548Z,33.88
2019-03-24T03:09:58.956Z,41.25
2019-03-24T03:12:29.291Z,39.38
2019-03-24T03:14:59.709Z,39.80
2019-03-24T03:17:30.041Z,37.48
2019-03-24T03:20:00.495Z,34.10
2019-03-24T03:22:30.894Z,34.63
2019-03-24T03:25:01.310Z,29.63
2019-03-24T03:27:31.650Z,29.67
2019-03-24T03:30:02.077Z,23.57
2019-03-24T03:32:32.432Z,27.90
2019-03-24T03:35:02.924Z,31.23
2019-03-24T03:37:33.304Z,30.10
2019-03-24T03:40:05.980Z,29.67
2019-03-24T03:42:36.724Z,31.80
2019-03-24T03:45:09.136Z,26.93
2019-03-24T03:47:40.280Z,27.22
2019-03-24T03:50:12.110Z,21.73
2019-03-24T03:52:42.451Z,28.32
2019-03-24T03:55:12.961Z,24.02
2019-03-24T03:57:43.313Z,28.15
2019-03-24T04:00:14.525Z,21.10
2019-03-24T04:02:44.877Z,20.97
2019-03-24T04:05:15.402Z,20.60
2019-03-24T04:07:45.754Z,21.10
2019-03-24T04:10:16.165Z,18.90
2019-03-24T04:12:46.590Z,21.97
2019-03-24T04:15:17.050Z,20.65
2019-03-24T04:17:47.392Z,22.90
2019-03-24T04:20:17.816Z,21.40
2019-03-24T04:22:48.179Z,19.20
2019-03-24T04:25:18.629Z,22.17
2019-03-24T04:27:49.044Z,22.27
2019-03-24T04:30:19.555Z,20.57
2019-03-24T04:32:49.896Z,20.60
2019-03-24T04:35:20.310Z,20.32
2019-03-24T04:37:50.716Z,22.55
2019-03-24T04:40:21.218Z,20.40
2019-03-24T04:42:51.612Z,19.07
2019-03-24T04:45:22.025Z,20.12
2019-03-24T04:47:52.444Z,21.40
2019-03-24T04:50:22.897Z,20.68
2019-03-24T04:52:53.301Z,17.73
2019-03-24T04:55:23.692Z,16.93
2019-03-24T04:57:54.115Z,20.92
2019-03-24T05:00:35.821Z,19.98
2019-03-24T05:03:06.345Z,23.40
2019-03-24T05:05:37.493Z,20.23
2019-03-24T05:10:39.766Z,19.10
2019-03-24T05:13:10.197Z,20.05
2019-03-24T05:15:40.535Z,19.23
2019-03-24T05:18:10.935Z,23.57
2019-03-24T05:20:41.292Z,16.82
2019-03-24T05:23:11.711Z,21.17
2019-03-24T05:25:42.080Z,21.15
2019-03-24T05:28:12.492Z,31.95
2019-03-24T05:30:42.833Z,20.55
2019-03-24T05:33:13.241Z,21.75
2019-03-24T05:35:43.592Z,20.95
2019-03-24T05:38:13.994Z,22.32
2019-03-24T05:40:44.340Z,22.98
2019-03-24T05:43:14.761Z,23.77
2019-03-24T05:45:45.117Z,22.67
2019-03-24T05:48:15.533Z,20.88
2019-03-24T05:50:45.874Z,25.32
2019-03-24T05:53:16.307Z,27.00
2019-03-24T05:55:46.755Z,26.20
2019-03-24T05:58:17.150Z,20.68
2019-03-24T06:00:47.503Z,27.35
2019-03-24T06:03:19.121Z,21.57
2019-03-24T06:05:49.477Z,24.75
2019-03-24T06:08:19.887Z,23.38
2019-03-24T06:10:50.240Z,20.75
2019-03-24T06:13:20.661Z,21.97
2019-03-24T06:15:51.013Z,23.75
2019-03-24T06:18:21.428Z,23.87
2019-03-24T06:20:53.075Z,30.00
2019-03-24T06:23:24.571Z,22.50
2019-03-24T06:25:54.965Z,22.62
2019-03-24T06:28:25.449Z,21.12
2019-03-24T06:30:55.808Z,23.57
2019-03-24T06:33:27.327Z,27.17
2019-03-24T06:35:57.688Z,23.62
2019-03-24T06:38:28.101Z,26.27
2019-03-24T06:40:58.460Z,27.02
2019-03-24T06:43:28.889Z,21.07
2019-03-24T06:45:59.247Z,25.70
2019-03-24T06:48:29.651Z,24.65
2019-03-24T06:51:00.013Z,29.82
2019-03-24T06:53:30.430Z,25.08
2019-03-24T06:56:00.802Z,32.78
2019-03-24T06:58:31.220Z,33.53
2019-03-24T07:01:01.570Z,32.55
2019-03-24T07:03:32.822Z,39.38
2019-03-24T07:06:03.501Z,35.95
2019-03-24T07:08:34.403Z,32.80
2019-03-24T07:11:09.662Z,29.25
2019-03-24T07:13:36.901Z,26.77
2019-03-24T07:16:07.266Z,27.17
2019-03-24T07:18:37.679Z,33.65
2019-03-24T07:21:08.026Z,25.80
2019-03-24T07:23:38.460Z,25.35
2019-03-24T07:26:08.828Z,26.23
2019-03-24T07:28:39.252Z,38.75
2019-03-24T07:31:10.713Z,23.50
2019-03-24T07:33:41.142Z,22.25
2019-03-24T07:36:11.483Z,23.25
2019-03-24T07:38:41.916Z,28.12
2019-03-24T07:41:12.271Z,23.65
2019-03-24T07:43:42.705Z,22.35
2019-03-24T07:46:13.169Z,19.85
2019-03-24T07:48:43.597Z,25.02
2019-03-24T07:51:13.950Z,21.90
2019-03-24T07:53:44.364Z,27.45
2019-03-24T07:56:14.733Z,19.87
2019-03-24T07:58:46.054Z,19.27
2019-03-24T08:01:16.625Z,21.05
2019-03-24T08:03:47.045Z,20.90
2019-03-24T08:06:17.401Z,22.60
2019-03-24T08:08:47.811Z,22.30
2019-03-24T08:11:18.167Z,19.48
2019-03-24T08:13:53.664Z,19.55
2019-03-24T08:16:20.556Z,19.15
2019-03-24T08:18:50.974Z,21.50
2019-03-24T08:21:21.341Z,23.15
2019-03-24T08:23:51.760Z,23.15
2019-03-24T08:26:22.125Z,24.23
2019-03-24T08:28:52.540Z,26.23
2019-03-24T08:31:22.888Z,28.55
2019-03-24T08:33:53.301Z,26.27
2019-03-24T08:36:23.662Z,31.20
2019-03-24T08:38:54.079Z,28.80
2019-03-24T08:41:24.440Z,29.85
2019-03-24T08:43:54.844Z,36.23
2019-03-24T08:46:25.205Z,37.42
2019-03-24T08:48:55.621Z,44.98
2019-03-24T08:51:25.971Z,39.00
2019-03-24T08:53:56.373Z,41.25
2019-03-24T08:56:26.967Z,41.37
2019-03-24T08:58:57.387Z,42.40
2019-03-24T09:01:27.757Z,44.33
2019-03-24T09:03:58.522Z,38.70
2019-03-24T09:06:28.890Z,34.35
2019-03-24T09:08:59.305Z,40.03
2019-03-24T09:11:31.960Z,37.53
2019-03-24T09:14:02.417Z,35.38
2019-03-24T09:16:32.775Z,35.15
2019-03-24T09:19:03.179Z,33.20
2019-03-24T09:21:33.637Z,37.38
2019-03-24T09:24:04.065Z,32.03
2019-03-24T09:26:34.415Z,36.75
2019-03-24T09:29:04.873Z,35.48
2019-03-24T09:31:35.220Z,40.95
2019-03-24T09:34:05.726Z,42.23
2019-03-24T09:36:36.083Z,40.00
2019-03-24T09:39:06.803Z,40.45
2019-03-24T09:41:37.222Z,37.00
2019-03-24T09:44:07.639Z,98.92
2019-03-24T09:46:38.042Z,49.83
2019-03-24T09:49:08.457Z,33.75
2019-03-24T09:51:38.880Z,38.40
2019-03-24T09:54:09.296Z,55.08
2019-03-24T09:56:39.642Z,42.88
2019-03-24T09:59:10.066Z,41.35
2019-03-24T10:01:40.431Z,60.83
2019-03-24T10:04:10.858Z,42.85
2019-03-24T10:06:41.204Z,50.40
2019-03-24T10:09:11.629Z,42.53
2019-03-24T10:11:49.248Z,43.70
2019-03-24T10:14:19.718Z,43.65
2019-03-24T10:16:50.115Z,42.15
2019-03-24T10:19:20.519Z,45.08
2019-03-24T10:21:50.939Z,44.38
2019-03-24T10:24:21.347Z,39.90
2019-03-24T10:26:51.784Z,36.95
2019-03-24T10:29:22.213Z,47.27
2019-03-24T10:31:52.628Z,40.80
2019-03-24T10:34:23.036Z,39.05
2019-03-24T10:36:53.439Z,43.48
2019-03-24T10:39:23.792Z,41.05
2019-03-24T10:41:54.207Z,41.33
2019-03-24T10:44:24.614Z,38.60
2019-03-24T10:46:55.024Z,39.55
2019-03-24T10:49:25.489Z,33.85
2019-03-24T10:51:55.887Z,34.67
2019-03-24T10:54:26.342Z,37.75
2019-03-24T10:56:56.747Z,30.88
2019-03-24T10:59:27.099Z,33.90
2019-03-24T11:01:57.528Z,27.32
2019-03-24T11:04:27.874Z,29.72
2019-03-24T11:06:58.292Z,32.40
2019-03-24T11:09:28.645Z,28.57
2019-03-24T11:11:59.066Z,28.35
2019-03-24T11:14:29.424Z,23.70
2019-03-24T11:16:59.827Z,27.52
2019-03-24T11:19:35.637Z,25.92
2019-03-24T11:22:02.214Z,24.75
2019-03-24T11:24:32.583Z,27.75
2019-03-24T11:27:03.001Z,22.77
2019-03-24T11:29:34.654Z,17.25
2019-03-24T11:32:05.072Z,15.40
2019-03-24T11:34:35.416Z,14.68
2019-03-24T11:37:05.836Z,30.95
2019-03-24T11:39:36.176Z,14.43
2019-03-24T11:42:06.579Z,14.45
2019-03-24T11:44:36.997Z,14.05
2019-03-24T11:47:07.430Z,14.75
2019-03-24T11:49:45.698Z,10.90
2019-03-24T11:52:09.835Z,12.45
2019-03-24T11:54:40.256Z,13.93
2019-03-24T11:57:10.667Z,11.97
2019-03-24T11:59:41.099Z,10.80
2019-03-24T12:02:11.598Z,14.38
2019-03-24T12:04:42.006Z,11.18
2019-03-24T12:07:12.416Z,15.63
2019-03-24T12:09:42.843Z,13.80
2019-03-24T12:12:13.304Z,15.08
2019-03-24T12:14:43.707Z,15.63
2019-03-24T12:17:14.116Z,19.07
2019-03-24T12:19:44.525Z,14.73
2019-03-24T12:22:14.948Z,17.40
2019-03-24T12:24:45.367Z,19.70
2019-03-24T12:27:15.720Z,21.77
2019-03-24T12:29:46.128Z,17.40
2019-03-24T12:32:16.504Z,22.32
2019-03-24T12:34:46.916Z,19.98
2019-03-24T12:37:17.276Z,20.72
2019-03-24T12:39:47.682Z,15.78
2019-03-24T12:42:18.044Z,16.55
2019-03-24T12:44:48.469Z,18.12
2019-03-24T12:47:18.823Z,17.98
2019-03-24T12:49:49.348Z,18.15
2019-03-24T12:52:19.716Z,18.52
2019-03-24T12:54:50.118Z,20.08
2019-03-24T12:57:20.467Z,18.70
2019-03-24T12:59:50.873Z,19.77
2019-03-24T13:02:22.328Z,24.90
2019-03-24T13:04:52.752Z,27.40
2019-03-24T13:07:23.116Z,36.45
2019-03-24T13:09:53.557Z,30.62
2019-03-24T13:12:23.921Z,34.98
2019-03-24T13:14:54.328Z,29.80
2019-03-24T13:17:24.689Z,32.13
2019-03-24T13:19:55.114Z,29.98
2019-03-24T13:22:25.464Z,32.63
2019-03-24T13:24:55.882Z,32.23
2019-03-24T13:27:26.236Z,37.58
2019-03-24T13:29:56.669Z,41.70
2019-03-24T13:32:27.031Z,38.10
2019-03-24T13:34:57.442Z,43.60
2019-03-24T13:37:27.809Z,37.50
2019-03-24T13:39:59.410Z,38.38
2019-03-24T13:42:29.828Z,35.98
2019-03-24T13:45:00.338Z,34.33
2019-03-24T13:47:30.770Z,39.55
2019-03-24T13:50:01.185Z,31.57
2019-03-24T13:52:32.637Z,31.23
2019-03-24T13:55:03.057Z,27.15
2019-03-24T13:57:33.433Z,19.55
2019-03-24T14:00:05.144Z,28.73
2019-03-24T14:02:35.495Z,35.92
2019-03-24T14:05:05.902Z,30.48
2019-03-24T14:07:36.350Z,30.15
2019-03-24T14:10:09.605Z,36.45
2019-03-24T14:12:39.950Z,31.70
2019-03-24T14:15:11.079Z,29.23
2019-03-24T14:17:41.436Z,25.30
2019-03-24T14:20:11.880Z,23.77
2019-03-24T14:22:42.234Z,28.57
2019-03-24T14:25:12.758Z,30.15
2019-03-24T14:27:43.107Z,35.48
2019-03-24T14:30:13.929Z,31.90
2019-03-24T14:32:44.292Z,35.60
2019-03-24T14:35:14.720Z,27.30
2019-03-24T14:37:45.076Z,29.07
2019-03-24T14:40:15.612Z,26.45
2019-03-24T14:42:46.064Z,28.10
2019-03-24T14:45:16.477Z,24.27
2019-03-24T14:47:46.910Z,28.38
2019-03-24T14:50:17.433Z,25.23
2019-03-24T14:52:49.023Z,24.90
2019-03-24T14:55:19.444Z,20.50
2019-03-24T14:57:49.807Z,25.45
2019-03-24T15:00:35.049Z,22.15
2019-03-24T15:03:06.702Z,20.82
2019-03-24T15:05:37.119Z,21.12
2019-03-24T15:08:08.680Z,21.47
2019-03-24T15:10:39.096Z,23.12
2019-03-24T15:13:09.451Z,21.52
2019-03-24T15:15:40.042Z,23.18
2019-03-24T15:18:10.421Z,24.18
2019-03-24T15:20:40.836Z,27.32
2019-03-24T15:23:11.197Z,23.18
2019-03-24T15:25:42.902Z,19.57
2019-03-24T15:28:13.261Z,22.45
2019-03-24T15:30:43.678Z,21.45
2019-03-24T15:33:14.027Z,21.17
2019-03-24T15:35:44.447Z,61.50
2019-03-24T15:38:14.806Z,22.95
2019-03-24T15:40:45.231Z,20.90
2019-03-24T15:43:15.581Z,22.02
2019-03-24T15:45:45.991Z,22.15
2019-03-24T15:48:16.338Z,21.40
2019-03-24T15:50:47.729Z,22.00
2019-03-24T15:53:18.153Z,20.75
2019-03-24T15:55:48.556Z,24.92
2019-03-24T15:58:18.971Z,24.23
2019-03-24T16:00:51.177Z,20.55
2019-03-24T16:03:21.594Z,18.85
2019-03-24T16:05:51.979Z,25.45
2019-03-24T16:08:22.395Z,22.67
2019-03-24T16:10:52.821Z,23.80
2019-03-24T16:13:23.241Z,24.70
2019-03-24T16:15:53.651Z,25.60
2019-03-24T16:18:24.072Z,28.60
2019-03-24T16:20:54.458Z,25.17
2019-03-24T16:23:24.818Z,22.95
2019-03-24T16:25:55.826Z,25.37
2019-03-24T16:28:27.286Z,26.60
2019-03-24T16:30:57.707Z,28.12
2019-03-24T16:33:28.056Z,24.80
2019-03-24T16:35:59.563Z,25.23
2019-03-24T16:38:29.928Z,25.15
2019-03-24T16:41:00.339Z,24.50
2019-03-24T16:43:30.704Z,23.40
2019-03-24T16:46:01.109Z,28.10
2019-03-24T16:48:36.699Z,22.73
2019-03-24T16:51:03.560Z,27.15
2019-03-24T16:53:33.966Z,28.12
2019-03-24T16:56:04.541Z,23.38
2019-03-24T16:58:34.951Z,26.50
2019-03-24T17:01:05.354Z,26.95
2019-03-24T17:03:35.771Z,24.07
2019-03-24T17:06:06.303Z,24.37
2019-03-24T17:08:36.746Z,26.23
2019-03-24T17:11:07.167Z,33.90
2019-03-24T17:13:37.589Z,28.80
2019-03-24T17:16:08.018Z,24.20
2019-03-24T17:18:38.476Z,45.15
2019-03-24T17:21:09.986Z,27.48
2019-03-24T17:23:40.382Z,26.17
2019-03-24T17:26:10.811Z,21.62
2019-03-24T17:28:41.230Z,28.95
2019-03-24T17:31:11.665Z,30.02
2019-03-24T17:33:42.083Z,38.20
2019-03-24T17:36:12.544Z,30.50
2019-03-24T17:38:42.997Z,31.62
2019-03-24T17:41:13.387Z,25.17
2019-03-24T17:43:43.740Z,28.77
2019-03-24T17:46:14.152Z,32.67
2019-03-24T17:48:44.563Z,25.52
2019-03-24T17:51:14.974Z,27.67
2019-03-24T17:53:45.399Z,29.57
2019-03-24T17:56:15.845Z,30.72
2019-03-24T17:58:47.236Z,29.53
2019-03-24T18:01:17.631Z,30.00
2019-03-24T18:03:48.085Z,28.23
2019-03-24T18:06:18.428Z,27.85
2019-03-24T18:08:48.790Z,35.68
2019-03-24T18:11:19.355Z,29.12
2019-03-24T18:13:50.712Z,30.13
2019-03-24T18:16:21.102Z,35.78
2019-03-24T18:18:51.500Z,33.05
2019-03-24T18:21:21.855Z,29.15
2019-03-24T18:23:52.375Z,30.70
2019-03-24T18:26:23.284Z,67.67
2019-03-24T18:28:53.683Z,36.45
2019-03-24T18:31:25.361Z,45.98
2019-03-24T18:33:55.827Z,41.20
2019-03-24T18:36:26.214Z,44.38
2019-03-24T18:38:56.636Z,69.47
2019-03-24T18:41:26.986Z,81.05
2019-03-24T18:43:57.454Z,65.92
2019-03-24T18:46:27.803Z,47.40
2019-03-24T18:48:58.211Z,54.48
2019-03-24T18:51:28.607Z,53.63
2019-03-24T18:53:59.021Z,51.45
2019-03-24T18:56:29.367Z,35.03
2019-03-24T18:58:59.788Z,53.10
2019-03-24T19:01:30.153Z,42.00
2019-03-24T19:04:00.580Z,46.45
2019-03-24T19:06:30.940Z,49.45
2019-03-24T19:09:01.360Z,50.63
2019-03-24T19:11:33.262Z,55.25
2019-03-24T19:14:03.662Z,60.15
2019-03-24T19:16:34.023Z,52.45
2019-03-24T19:19:04.550Z,52.50
2019-03-24T19:21:36.204Z,59.13
2019-03-24T19:24:07.716Z,50.57
2019-03-24T19:26:38.065Z,55.08
2019-03-24T19:29:08.489Z,56.60
2019-03-24T19:31:38.834Z,67.27
2019-03-24T19:34:09.255Z,59.95
2019-03-24T19:36:39.621Z,77.92
2019-03-24T19:39:10.152Z,63.83
2019-03-24T19:41:40.542Z,91.40
2019-03-24T19:44:11.051Z,69.20
2019-03-24T19:46:41.438Z,67.05
2019-03-24T19:49:11.856Z,59.85
2019-03-24T19:51:42.264Z,70.37
2019-03-24T19:54:12.680Z,62.90
2019-03-24T19:56:43.082Z,67.90
2019-03-24T19:59:13.519Z,75.00
2019-03-24T20:01:43.929Z,73.95
2019-03-24T20:04:14.353Z,93.52
2019-03-24T20:06:44.801Z,83.00
2019-03-24T20:09:16.391Z,90.80
2019-03-24T20:11:46.998Z,94.32
2019-03-24T20:14:17.448Z,81.10
2019-03-24T20:16:47.864Z,77.65
2019-03-24T20:19:18.302Z,73.78
2019-03-24T20:21:48.708Z,72.92
2019-03-24T20:24:19.130Z,63.90
2019-03-24T20:26:49.474Z,66.00
2019-03-24T20:29:19.974Z,63.78
2019-03-24T20:31:50.396Z,58.28
2019-03-24T20:34:20.751Z,61.70
2019-03-24T20:36:51.124Z,57.23
2019-03-24T20:39:21.541Z,59.25
2019-03-24T20:41:51.929Z,58.33
2019-03-24T20:44:22.276Z,61.80
2019-03-24T20:46:52.736Z,163.25
2019-03-24T20:49:23.130Z,69.00
2019-03-24T20:51:53.544Z,77.20
2019-03-24T20:54:23.908Z,68.85
2019-03-24T20:56:54.318Z,80.57
2019-03-24T20:59:24.680Z,63.33
2019-03-24T21:01:55.099Z,75.37
2019-03-24T21:04:25.502Z,64.92
2019-03-24T21:06:55.986Z,62.83
2019-03-24T21:09:26.397Z,60.33
2019-03-24T21:11:56.819Z,62.05
2019-03-24T21:14:27.223Z,69.77
2019-03-24T21:16:57.646Z,72.00
2019-03-24T21:19:28.075Z,69.50
2019-03-24T21:21:58.489Z,64.80
2019-03-24T21:24:28.922Z,63.58
2019-03-24T21:27:00.637Z,66.28
2019-03-24T21:29:31.055Z,68.60
2019-03-24T21:32:01.463Z,57.95
2019-03-24T21:34:33.101Z,59.20
2019-03-24T21:37:03.515Z,58.78
2019-03-24T21:39:33.927Z,58.23
2019-03-24T21:42:04.339Z,62.38
2019-03-24T21:44:34.764Z,67.20
2019-03-24T21:47:05.171Z,58.87
2019-03-24T21:49:35.529Z,64.80
2019-03-24T21:52:05.935Z,60.90
2019-03-24T21:54:36.351Z,59.80
2019-03-24T21:57:06.751Z,69.32
2019-03-24T21:59:37.175Z,71.87
2019-03-24T22:02:07.664Z,68.28
2019-03-24T22:04:38.532Z,60.15
2019-03-24T22:07:08.988Z,63.42
2019-03-24T22:09:39.388Z,58.73
2019-03-24T22:12:09.748Z,56.58
2019-03-24T22:14:40.172Z,62.58
2019-03-24T22:17:10.523Z,65.35
2019-03-24T22:19:40.934Z,56.55
2019-03-24T22:22:11.299Z,56.18
2019-03-24T22:24:41.811Z,66.60
2019-03-24T22:27:12.159Z,62.05
2019-03-24T22:29:42.511Z,137.80
2019-03-24T22:32:12.932Z,133.70
2019-03-24T22:34:43.287Z,78.62
2019-03-24T22:37:16.000Z,130.50
2019-03-24T22:39:45.681Z,69.32
2019-03-24T22:42:16.104Z,67.60
2019-03-24T22:44:46.468Z,68.42
2019-03-24T22:47:16.873Z,65.72
2019-03-24T22:49:47.219Z,69.00
2019-03-24T22:52:18.594Z,59.50
2019-03-24T22:54:49.051Z,53.98
2019-03-24T22:57:21.117Z,58.08
2019-03-24T23:02:28.593Z,65.25
2019-03-24T23:05:11.403Z,57.43
2019-03-24T23:07:48.738Z,60.73
2019-03-24T23:10:22.692Z,68.37
2019-03-24T23:12:53.315Z,59.27
2019-03-24T23:15:23.663Z,63.65
2019-03-24T23:17:54.146Z,53.40
2019-03-24T23:20:24.619Z,65.40
2019-03-24T23:22:55.289Z,58.55
2019-03-24T23:25:27.176Z,63.60
2019-03-24T23:27:59.545Z,60.73
2019-03-24T23:30:29.894Z,67.85
2019-03-24T23:33:02.276Z,63.30
2019-03-24T23:35:33.362Z,54.75
2019-03-24T23:38:03.997Z,61.23
2019-03-24T23:40:36.330Z,61.37
2019-03-24T23:43:07.644Z,57.67
2019-03-24T23:45:38.009Z,53.33
2019-03-24T23:48:08.418Z,58.68
2019-03-24T23:50:38.785Z,56.37
2019-03-24T23:53:09.252Z,60.25
2019-03-24T23:55:39.644Z,55.55
2019-03-24T23:58:10.053Z,56.85
